Terminal Aerodrome Forecast
Issued by NWS

Home | Current Version | Previous Version | Graphics & Text | Print | Product List | Glossary On
Versions: 1 2 3 4 5 6 7 8 9 10 11 12 13 14 15 16 17 18 19
000
FTUS41 KCLE 251600 AAA
TAFFDY
TAF AMD
KFDY 251657Z 2517/2612 08013KT P6SM VCSH BKN060 OVC080
      TEMPO 2517/2521 6SM -RA BR BKN040
     FM252300 05009KT P6SM BKN080
     FM260400 03010KT P6SM SCT040 BKN080
     FM260800 02008KT P6SM SCT120 BKN250=

USA.gov is the U.S. government's official web portal to all federal, state and local government web resources and services.